DFOO

Details ICAO DFOO (BOY)
Name BOBO DIOULASSO
Region Burkina Faso
Timezone Africa/Ouagadougou (UTC+0.0)
Plans Departing 6
Arriving 11
Stats Elevation 1,511 ft / 461 m (AMSL)
Location 11.160058° -4.330970°
Runways 1
Magnetic Variation 3.310° W
Sunrise 2017-12-15 06:29:38 UTC / 2017-12-15 06:29:38 Local
Sunset 2017-12-15 17:58:07 UTC / 2017-12-15 17:58:07 Local
Advertisement - Login to hide

Runways

ID Width Length Bearing (true) Bearing (mag) Surface Threshold Offset Overrun Length
06 148 ft / 45 m 10,757 ft / 3,279 m 52.66° 55.97° Asphalt 0 ft / 0 m 262 ft / 80 m
24 148 ft / 45 m 10,757 ft / 3,279 m 232.67° 235.98° Asphalt 0 ft / 0 m 262 ft / 80 m

Map

Weather


0- 5 10 15 20 25 30 35+ Temperature / ° C

Clouds and Precipitation
Forecast for 2017-12-15 06:00 UTC. Updated 2 hours ago

Ground ~20,000 ft ~40,000 ft Winds

METAR

DFOO 150400Z 29002KT 4500 DU NSC 24/09 Q1014

TAF

TAF DFOO 142300Z 1500/1524 02008KT 4000 DU NSC BECMG 1504/1506 2800 DU BECMG 1519/1521 4000 DU

Frequencies

Tower 119.70 MHz TWR
Warning: Do not use this data for real-world aviation or navigation. No guarantee of current accuracy is given.